Buffalo, MN (55313)

12:04 AM CST on December 04, 2016 (GMT -0600)
Lakeview | | Change Station

Elev 970 ft 45.16 °N, 93.88 °W | Updated 6 seconds ago

Light Snow
Light Snow
32.0 °F
Feels Like 32 °F
N
0.9
Wind Variable Wind from ESE
Gusts 2.5 mph

Today
High -- | Low -- °F
--% Chance of Precip.
Yesterday
High -- | Low -- °F
Precip. -- in
Pressure 30.09 in
Visibility 3.0 miles
Clouds Mostly Cloudy 1000 ft
Overcast 1600 ft
Windchill 32 °F
Dew Point 30 °F
Humidity 92%
Rainfall 0.00 in
Snow Depth Not available.
7:37 AM 4:33 PM
Waxing Crescent, 20% visible
METAR KCFE 040554Z AUTO 12007KT 3SM -SN BKN010 OVC016 00/M01 A3009 RMK AO2 T10021015
Pressure 30.09 in
Visibility 3.0 miles
Clouds Mostly Cloudy 1000 ft
Overcast 1600 ft
Windchill 32 °F
Dew Point 30 °F
Humidity 92%
Rainfall 0.00 in
Snow Depth Not available.
7:37 AM 4:33 PM
Waxing Crescent, 20% visible
METAR KCFE 040554Z AUTO 12007KT 3SM -SN BKN010 OVC016 00/M01 A3009 RMK AO2 T10021015

10-Day Weather Forecast

Almanac

Astronomy

Dec. 04, 2016 Rise Set
Actual Time
Civil Twilight
Nautical Twilight
Astronomical Twilight
Moon
Length of Visible Light
Length of Day
Tomorrow will be .
, % of the Moon is Illuminated

Today's Extremes

State Highs State Lows

Community

WunderPhotos

Upload Photos

1,955,587 photos uploaded!

WunderBlog® & News

Nearby

Air Quality

  Air Quality AQ Index Pollutant
Not available.

Snow Depth

Station Depth Elevation

Earthquake Activity

City Distance Mag. Time & Date
Minimum magnitude displayed is 2.5.

Coastal Water Temperatures

Place Temperature

Stations

Nearby Weather Stations

Station Location Temp. Windchill Dew Point Humidity Wind Precip. Elev Updated Type
                   

Watches & Warnings

There are currently no watches in effect.